createdAt,value
2022-11-07T00:00:56.692Z,4.60
2022-11-07T00:05:58.454Z,5.10
2022-11-07T00:11:01.828Z,5.27
2022-11-07T00:16:05.295Z,4.63
2022-11-07T00:21:08.079Z,4.87
2022-11-07T00:26:12.389Z,5.67
2022-11-07T00:31:14.577Z,4.73
2022-11-07T00:36:17.238Z,4.30
2022-11-07T00:41:20.342Z,5.27
2022-11-07T00:46:22.254Z,5.23
2022-11-07T00:51:25.292Z,4.80
2022-11-07T00:56:28.430Z,4.80
2022-11-07T01:01:31.340Z,4.57
2022-11-07T01:06:34.576Z,6.60
2022-11-07T01:11:37.830Z,4.40
2022-11-07T01:16:39.715Z,4.77
2022-11-07T01:21:42.154Z,3.90
2022-11-07T01:26:47.881Z,4.30
2022-11-07T01:31:49.711Z,4.17
2022-11-07T01:36:51.503Z,4.63
2022-11-07T01:41:54.649Z,4.03
2022-11-07T01:46:57.314Z,3.70
2022-11-07T01:52:00.101Z,4.07
2022-11-07T01:57:06.032Z,4.70
2022-11-07T02:02:08.028Z,3.60
2022-11-07T02:07:11.466Z,4.40
2022-11-07T02:12:14.781Z,3.43
2022-11-07T02:17:16.702Z,4.00
2022-11-07T02:22:24.939Z,3.70
2022-11-07T02:27:29.572Z,3.30
2022-11-07T02:32:31.861Z,3.70
2022-11-07T02:37:35.384Z,3.67
2022-11-07T02:42:44.844Z,3.97
2022-11-07T02:47:46.688Z,3.60
2022-11-07T02:52:48.574Z,3.67
2022-11-07T02:57:51.710Z,4.80
2022-11-07T03:02:53.704Z,3.60
2022-11-07T03:07:55.592Z,3.30
2022-11-07T03:12:58.711Z,3.53
2022-11-07T03:18:00.495Z,4.00
2022-11-07T03:23:02.407Z,3.30
2022-11-07T03:28:05.994Z,3.60
2022-11-07T03:33:07.949Z,4.10
2022-11-07T03:38:09.884Z,3.30
2022-11-07T03:43:13.193Z,3.00
2022-11-07T03:48:15.211Z,3.70
2022-11-07T03:53:22.164Z,9.87
2022-11-07T03:58:28.113Z,3.80
2022-11-07T04:03:29.911Z,2.80
2022-11-07T04:08:31.715Z,2.80
2022-11-07T04:13:53.362Z,2.97
2022-11-07T04:18:55.162Z,2.90
2022-11-07T04:23:56.928Z,4.07
2022-11-07T04:29:00.061Z,2.80
2022-11-07T04:34:01.837Z,2.53
2022-11-07T04:39:03.816Z,2.60
2022-11-07T04:44:07.059Z,2.60
2022-11-07T04:49:08.799Z,2.33
2022-11-07T04:54:12.033Z,2.63
2022-11-07T04:59:15.189Z,2.70
2022-11-07T05:04:16.990Z,2.40
2022-11-07T05:09:18.895Z,2.40
2022-11-07T05:14:22.057Z,2.30
2022-11-07T05:19:23.828Z,3.87
2022-11-07T05:24:25.666Z,2.50
2022-11-07T05:29:28.764Z,2.67
2022-11-07T05:34:30.572Z,2.70
2022-11-07T05:39:32.314Z,2.30
2022-11-07T05:44:35.425Z,2.40
2022-11-07T05:49:37.156Z,2.17
2022-11-07T05:54:38.979Z,4.27
2022-11-07T05:59:42.059Z,2.27
2022-11-07T06:04:44.338Z,3.40
2022-11-07T06:09:46.127Z,2.40
2022-11-07T06:14:49.258Z,2.50
2022-11-07T06:19:50.999Z,2.53
2022-11-07T06:24:52.795Z,2.77
2022-11-07T06:29:55.983Z,2.73
2022-11-07T06:34:57.686Z,3.40
2022-11-07T06:39:59.468Z,4.30
2022-11-07T06:45:02.491Z,2.90
2022-11-07T06:50:04.661Z,2.33
2022-11-07T06:55:07.593Z,2.00
2022-11-07T07:00:12.399Z,2.70
2022-11-07T07:05:17.163Z,2.23
2022-11-07T07:10:21.835Z,2.20
2022-11-07T07:15:25.060Z,2.53
2022-11-07T07:20:26.929Z,2.60
2022-11-07T07:25:28.725Z,2.40
2022-11-07T07:30:31.890Z,2.20
2022-11-07T07:35:33.730Z,2.77
2022-11-07T07:40:35.504Z,2.50
2022-11-07T07:45:38.607Z,2.30
2022-11-07T07:50:40.337Z,2.80
2022-11-07T07:55:42.169Z,2.00
2022-11-07T08:00:45.355Z,2.93
2022-11-07T08:05:52.304Z,2.10
2022-11-07T08:10:56.701Z,2.00
2022-11-07T08:16:01.740Z,2.10
2022-11-07T08:21:03.641Z,1.67
2022-11-07T08:26:05.798Z,2.40
2022-11-07T08:31:10.083Z,2.40
2022-11-07T08:36:11.800Z,2.10
2022-11-07T08:41:17.178Z,2.10
2022-11-07T08:46:22.709Z,1.80
2022-11-07T08:51:24.482Z,2.17
2022-11-07T08:56:26.253Z,2.37
2022-11-07T09:01:29.504Z,1.73
2022-11-07T09:06:32.903Z,1.70
2022-11-07T09:11:34.683Z,2.00
2022-11-07T09:16:37.736Z,2.33
2022-11-07T09:21:39.552Z,1.67
2022-11-07T09:26:41.480Z,1.75
2022-11-07T09:31:44.547Z,1.45
2022-11-07T09:36:46.220Z,1.50
2022-11-07T09:41:53.101Z,1.50
2022-11-07T09:46:59.184Z,1.75
2022-11-07T09:52:03.999Z,1.63
2022-11-07T09:57:05.711Z,2.57
2022-11-07T10:02:14.431Z,2.23
2022-11-07T10:07:21.108Z,3.50
2022-11-07T10:12:31.423Z,1.70
2022-11-07T10:17:39.309Z,1.90
2022-11-07T10:22:49.301Z,2.33
2022-11-07T10:27:52.538Z,1.93
2022-11-07T10:32:59.829Z,2.67
2022-11-07T10:38:02.329Z,2.00
2022-11-07T10:43:05.935Z,2.00
2022-11-07T10:48:09.097Z,1.77
2022-11-07T10:53:17.305Z,2.00
2022-11-07T10:58:20.184Z,2.03
2022-11-07T11:03:29.050Z,2.00
2022-11-07T11:08:38.568Z,2.70
2022-11-07T11:13:40.281Z,1.90
2022-11-07T11:18:49.785Z,4.03
2022-11-07T11:23:51.954Z,2.47
2022-11-07T11:28:55.115Z,2.97
2022-11-07T11:34:00.601Z,3.10
2022-11-07T11:39:03.049Z,2.73
2022-11-07T11:44:06.917Z,2.63
2022-11-07T11:49:13.361Z,2.30
2022-11-07T11:54:15.487Z,2.70
2022-11-07T11:59:34.721Z,2.60
2022-11-07T12:04:43.439Z,2.10
2022-11-07T12:09:45.933Z,2.57
2022-11-07T12:15:03.175Z,2.40
2022-11-07T12:20:12.717Z,2.60
2022-11-07T12:25:17.867Z,2.77
2022-11-07T12:30:22.144Z,2.40
2022-11-07T12:35:34.985Z,2.90
2022-11-07T12:40:40.756Z,2.40
2022-11-07T12:45:48.420Z,2.13
2022-11-07T12:50:53.180Z,3.53
2022-11-07T12:55:57.331Z,2.27
2022-11-07T13:00:59.658Z,2.50
2022-11-07T13:06:09.864Z,2.10
2022-11-07T13:11:15.729Z,2.37
2022-11-07T13:16:23.483Z,1.93
2022-11-07T13:21:26.513Z,1.93
2022-11-07T13:26:47.633Z,2.20
2022-11-07T13:32:05.936Z,1.93
2022-11-07T13:37:13.318Z,2.53
2022-11-07T13:42:16.080Z,1.73
2022-11-07T13:47:21.300Z,1.80
2022-11-07T13:52:28.176Z,1.77
2022-11-07T13:57:33.354Z,2.30
2022-11-07T14:02:35.402Z,2.33
2022-11-07T14:07:39.679Z,1.77
2022-11-07T14:12:41.457Z,5.23
2022-11-07T14:17:43.384Z,4.70
2022-11-07T14:22:52.884Z,4.13
2022-11-07T14:27:54.950Z,3.93
2022-11-07T14:32:57.622Z,2.40
2022-11-07T14:38:08.124Z,4.67
2022-11-07T14:43:11.660Z,3.30
2022-11-07T14:48:14.289Z,2.50
2022-11-07T14:53:19.975Z,5.30
2022-11-07T14:58:23.951Z,3.80
2022-11-07T15:03:30.762Z,2.97
2022-11-07T15:08:34.552Z,4.97
2022-11-07T15:13:36.339Z,7.10
2022-11-07T15:18:39.632Z,7.33
2022-11-07T15:23:42.785Z,5.20
2022-11-07T15:28:45.354Z,5.67
2022-11-07T15:33:47.142Z,3.00
2022-11-07T15:38:50.518Z,4.90
2022-11-07T15:43:52.324Z,5.80
2022-11-07T15:48:54.116Z,8.37
2022-11-07T15:53:57.313Z,6.87
2022-11-07T15:58:59.051Z,6.30
2022-11-07T16:04:00.866Z,9.53
2022-11-07T16:09:06.485Z,9.30
2022-11-07T16:14:38.101Z,6.40
2022-11-07T16:19:33.058Z,6.23
2022-11-07T16:24:36.289Z,5.27
2022-11-07T16:29:38.101Z,4.20
2022-11-07T16:34:39.899Z,4.20
2022-11-07T16:39:43.070Z,3.30
2022-11-07T16:44:44.977Z,3.00
2022-11-07T16:49:49.040Z,3.50
2022-11-07T16:54:54.115Z,2.90
2022-11-07T16:59:56.026Z,3.30
2022-11-07T17:04:58.085Z,2.30
2022-11-07T17:10:01.329Z,4.27
2022-11-07T17:15:03.764Z,2.90
2022-11-07T17:20:07.038Z,2.83
2022-11-07T17:25:10.459Z,2.73
2022-11-07T17:30:14.418Z,2.60
2022-11-07T17:35:31.564Z,2.40
2022-11-07T17:40:35.537Z,7.27
2022-11-07T17:45:37.444Z,14.80
2022-11-07T17:50:39.875Z,19.50
2022-11-07T17:55:42.982Z,18.87
2022-11-07T18:00:44.993Z,22.07
2022-11-07T18:05:47.728Z,7.23
2022-11-07T18:10:56.341Z,13.10
2022-11-07T18:15:58.402Z,6.77
2022-11-07T18:21:00.305Z,5.90
2022-11-07T18:26:04.156Z,4.63
2022-11-07T18:31:07.375Z,3.90
2022-11-07T18:36:11.017Z,4.13
2022-11-07T18:41:15.317Z,4.37
2022-11-07T18:46:19.253Z,4.07
2022-11-07T18:51:21.793Z,5.33
2022-11-07T18:56:24.921Z,6.00
2022-11-07T19:01:28.430Z,8.17
2022-11-07T19:06:30.393Z,8.60
2022-11-07T19:11:34.071Z,12.27
2022-11-07T19:16:35.911Z,4.60
2022-11-07T19:21:41.467Z,8.13
2022-11-07T19:26:47.032Z,5.57
2022-11-07T19:31:48.847Z,6.07
2022-11-07T19:36:50.640Z,6.30
2022-11-07T19:41:53.794Z,4.50
2022-11-07T19:46:56.907Z,5.70
2022-11-07T19:51:58.792Z,10.83
2022-11-07T19:57:05.074Z,7.53
2022-11-07T20:02:31.753Z,5.50
2022-11-07T20:07:30.536Z,6.83
2022-11-07T20:12:33.734Z,4.77
2022-11-07T20:17:35.507Z,5.23
2022-11-07T20:22:37.316Z,4.53
2022-11-07T20:27:40.541Z,4.33
2022-11-07T20:32:44.759Z,4.30
2022-11-07T20:37:46.692Z,7.80
2022-11-07T20:42:53.588Z,9.57
2022-11-07T20:47:55.504Z,6.23
2022-11-07T20:52:59.120Z,8.40
2022-11-07T20:58:04.358Z,4.00
2022-11-07T21:03:06.438Z,6.40
2022-11-07T21:08:08.533Z,3.93
2022-11-07T21:13:14.483Z,4.03
2022-11-07T21:18:16.931Z,4.97
2022-11-07T21:23:19.420Z,3.10
2022-11-07T21:28:23.012Z,3.40
2022-11-07T21:33:24.956Z,3.10
2022-11-07T21:38:26.787Z,2.67
2022-11-07T21:43:29.994Z,3.03
2022-11-07T21:48:31.947Z,2.30
2022-11-07T21:53:37.647Z,3.10
2022-11-07T21:58:41.457Z,3.53
2022-11-07T22:04:05.108Z,2.37
2022-11-07T22:09:05.789Z,3.03
2022-11-07T22:14:09.374Z,2.37
2022-11-07T22:19:12.887Z,2.83
2022-11-07T22:24:15.092Z,2.57
2022-11-07T22:29:18.637Z,4.40
2022-11-07T22:34:20.494Z,2.50
2022-11-07T22:39:22.411Z,3.00
2022-11-07T22:44:25.810Z,2.60
2022-11-07T22:49:27.833Z,2.80
2022-11-07T22:54:29.799Z,2.70
2022-11-07T22:59:33.098Z,2.67
2022-11-07T23:04:34.986Z,2.70
2022-11-07T23:09:37.231Z,3.33
2022-11-07T23:14:40.502Z,2.63
2022-11-07T23:19:42.359Z,2.70
2022-11-07T23:24:46.301Z,3.07
2022-11-07T23:29:49.516Z,3.07
2022-11-07T23:34:54.338Z,2.70
2022-11-07T23:39:56.913Z,2.93
2022-11-07T23:45:18.677Z,3.00
2022-11-07T23:50:39.112Z,4.00
2022-11-07T23:55:40.926Z,2.67
